Time;durP1;ratioP1;P1;durP2;ratioP2;P2;SDS_P1;SDS_P2;PMS_P1;PMS_P2;Temp;Humidity;BMP_temperature;BMP_pressure;BME280_temperature;BME280_humidity;BME280_pressure;Samples;Min_cycle;Max_cycle;Signal;HPM_P1;HPM_P2
2022/11/26 00:00:40;;;;;;;;;;;;;;;;;;5037207;28;3149;-63
2022/11/26 00:03:07;;;;;;;;;;;;;;;;;;5018890;28;4948;-62
2022/11/26 00:05:33;;;;;;;;;;;;;;;;;;5023447;28;4905;-64
2022/11/26 00:07:58;;;;;;;;;;;;;;;;;;5024182;28;5073;-63
2022/11/26 00:10:24;;;;;;;;;;;;;;;;;;5024894;28;4599;-63
2022/11/26 00:12:49;;;;;;;;;;;;;;;;;;5045382;28;3371;-61
2022/11/26 00:15:15;;;;;;;;;;;;;;;;;;5027813;28;4831;-64
2022/11/26 00:17:40;;;;;;;;;;;;;;;;;;5022673;28;5018;-63
2022/11/26 00:20:06;;;;;;;;;;;;;;;;;;5014794;28;5111;-61
2022/11/26 00:22:31;;;;;;;;;;;;;;;;;;5018509;28;5010;-62
2022/11/26 00:24:56;;;;;;;;;;;;;;;;;;5023934;28;3311;-63
2022/11/26 00:27:23;;;;;;;;;;;;;;;;;;5013242;28;5094;-62
2022/11/26 00:29:48;;;;;;;;;;;;;;;;;;5023786;28;4603;-62
2022/11/26 00:32:15;;;;;;;;;;;;;;;;;;5023713;28;5144;-63
2022/11/26 00:34:40;;;;;;;;;;;;;;;;;;5023815;28;4878;-62
2022/11/26 00:37:07;;;;;;;;;;;;;;;;;;5030419;28;1128;-63
2022/11/26 00:39:33;;;;;;;;;;;;;;;;;;5027409;28;5117;-63
2022/11/26 00:41:58;;;;;;;;;;;;;;;;;;5028209;28;4975;-63
2022/11/26 00:44:23;;;;;;;;;;;;;;;;;;5026772;28;4888;-63
2022/11/26 00:46:49;;;;;;;;;;;;;;;;;;5026017;28;4767;-62
2022/11/26 00:49:14;;;;;;;;;;;;;;;;;;5029975;28;1021;-63
2022/11/26 00:51:40;;;;;;;;;;;;;;;;;;5022996;28;4964;-63
2022/11/26 00:54:05;;;;;;;;;;;;;;;;;;5040181;28;5059;-63
2022/11/26 00:56:30;;;;;;;;;;;;;;;;;;5020958;28;4998;-63
2022/11/26 00:58:55;;;;;;;;;;;;;;;;;;5034769;28;5064;-62
2022/11/26 01:01:22;;;;;;;;;;;;;;;;;;5025388;28;4565;-63
2022/11/26 01:03:47;;;;;;;;;;;;;;;;;;5028817;28;3236;-63
2022/11/26 01:06:39;;;;;;;;;;;;;;;;;;5025794;28;4575;-63
2022/11/26 01:09:04;;;;;;;;;;;;;;;;;;5026066;28;5083;-63
2022/11/26 01:11:29;;;;;;;;;;;;;;;;;;5025128;28;5074;-63
2022/11/26 01:13:55;;;;;;;;;;;;;;;;;;5028011;28;5185;-63
2022/11/26 01:16:24;;;;;;;;;;;;;;;;;;5029013;28;5243;-63
2022/11/26 01:18:50;;;;;;;;;;;;;;;;;;5016543;28;3342;-63
2022/11/26 01:21:15;;;;;;;;;;;;;;;;;;5018393;28;5000;-63
2022/11/26 01:23:41;;;;;;;;;;;;;;;;;;5013619;28;5022;-63
2022/11/26 01:26:08;;;;;;;;;;;;;;;;;;5016329;28;5104;-63
2022/11/26 01:28:34;;;;;;;;;;;;;;;;;;5025171;28;4407;-63
2022/11/26 01:30:59;;;;;;;;;;;;;;;;;;5027609;28;3459;-63
2022/11/26 01:33:24;;;;;;;;;;;;;;;;;;5020647;28;5320;-62
2022/11/26 01:35:49;;;;;;;;;;;;;;;;;;5023217;28;4683;-63
2022/11/26 01:38:15;;;;;;;;;;;;;;;;;;5016100;28;5078;-63
2022/11/26 01:40:59;;;;;;;;;;;;;;;;;;5023634;28;4971;-63
2022/11/26 01:43:28;;;;;;;;;;;;;;;;;;5022322;28;5158;-63
2022/11/26 01:45:54;;;;;;;;;;;;;;;;;;5015695;28;3533;-62
2022/11/26 01:48:29;;;;;;;;;;;;;;;;;;5020686;28;5148;-62
2022/11/26 01:51:01;;;;;;;;;;;;;;;;;;5020513;28;5027;-62
2022/11/26 01:53:27;;;;;;;;;;;;;;;;;;5023014;28;4618;-63
2022/11/26 01:55:56;;;;;;;;;;;;;;;;;;5021219;28;5187;-63
2022/11/26 01:58:27;;;;;;;;;;;;;;;;;;5023201;28;5201;-62
2022/11/26 02:00:52;;;;;;;;;;;;;;;;;;5040364;28;3344;-63
2022/11/26 02:03:17;;;;;;;;;;;;;;;;;;5013574;28;4448;-63
2022/11/26 02:05:44;;;;;;;;;;;;;;;;;;5019999;28;5165;-63
2022/11/26 02:08:09;;;;;;;;;;;;;;;;;;5031405;28;5145;-63
2022/11/26 02:10:34;;;;;;;;;;;;;;;;;;5016528;28;5186;-63
2022/11/26 02:13:00;;;;;;;;;;;;;;;;;;5028952;28;2341;-63
2022/11/26 02:15:25;;;;;;;;;;;;;;;;;;5019997;28;5081;-63
2022/11/26 02:17:52;;;;;;;;;;;;;;;;;;5024800;28;5186;-63
2022/11/26 02:20:17;;;;;;;;;;;;;;;;;;5025636;28;5073;-63
2022/11/26 02:22:48;;;;;;;;;;;;;;;;;;5024770;28;4992;-63
2022/11/26 02:25:19;;;;;;;;;;;;;;;;;;5016265;28;3085;-63
2022/11/26 02:27:47;;;;;;;;;;;;;;;;;;5015561;28;5119;-62
2022/11/26 02:30:13;;;;;;;;;;;;;;;;;;5020072;28;4829;-63
2022/11/26 02:32:42;;;;;;;;;;;;;;;;;;5019063;28;5039;-62
2022/11/26 02:35:15;;;;;;;;;;;;;;;;;;5022016;28;4620;-62
2022/11/26 02:37:42;;;;;;;;;;;;;;;;;;5028415;28;4972;-62
2022/11/26 02:40:08;;;;;;;;;;;;;;;;;;5034889;28;3302;-63
2022/11/26 02:42:33;;;;;;;;;;;;;;;;;;5021350;28;4983;-62
2022/11/26 02:45:09;;;;;;;;;;;;;;;;;;5025598;28;5034;-63
2022/11/26 02:47:35;;;;;;;;;;;;;;;;;;5039947;28;5087;-62
2022/11/26 02:50:02;;;;;;;;;;;;;;;;;;5033291;28;5028;-62
2022/11/26 02:52:27;;;;;;;;;;;;;;;;;;5033813;28;5004;-62
2022/11/26 02:54:52;;;;;;;;;;;;;;;;;;5023927;28;3381;-63
2022/11/26 02:57:18;;;;;;;;;;;;;;;;;;5013498;28;4458;-62
2022/11/26 02:59:43;;;;;;;;;;;;;;;;;;5016404;28;5119;-63
2022/11/26 03:02:10;;;;;;;;;;;;;;;;;;5026257;28;5256;-63
2022/11/26 03:04:39;;;;;;;;;;;;;;;;;;5033632;28;5120;-62
2022/11/26 03:07:04;;;;;;;;;;;;;;;;;;5025129;28;3323;-62
2022/11/26 03:09:39;;;;;;;;;;;;;;;;;;5027848;28;5460;-62
2022/11/26 03:12:05;;;;;;;;;;;;;;;;;;5022317;28;4936;-62
2022/11/26 03:14:30;;;;;;;;;;;;;;;;;;5023523;28;5146;-60
2022/11/26 03:16:55;;;;;;;;;;;;;;;;;;5022321;28;5030;-62
2022/11/26 03:19:20;;;;;;;;;;;;;;;;;;5027780;28;5067;-62
2022/11/26 03:21:46;;;;;;;;;;;;;;;;;;5022880;28;3460;-63
2022/11/26 03:24:11;;;;;;;;;;;;;;;;;;5017939;28;4993;-62
2022/11/26 03:26:36;;;;;;;;;;;;;;;;;;5017430;28;5199;-63
2022/11/26 03:29:01;;;;;;;;;;;;;;;;;;5017079;28;5119;-63
2022/11/26 03:31:27;;;;;;;;;;;;;;;;;;5028979;28;5121;-63
2022/11/26 03:33:52;;;;;;;;;;;;;;;;;;5017378;28;3421;-62
2022/11/26 03:36:17;;;;;;;;;;;;;;;;;;5025101;28;5072;-62
2022/11/26 03:38:42;;;;;;;;;;;;;;;;;;5024251;28;5089;-62
2022/11/26 03:41:07;;;;;;;;;;;;;;;;;;5024246;28;4595;-63
2022/11/26 03:43:33;;;;;;;;;;;;;;;;;;5030190;28;5171;-62
2022/11/26 03:45:58;;;;;;;;;;;;;;;;;;5024115;28;3215;-63
2022/11/26 03:48:23;;;;;;;;;;;;;;;;;;5027048;28;4937;-63
2022/11/26 03:50:48;;;;;;;;;;;;;;;;;;5027291;28;5020;-62
2022/11/26 03:53:14;;;;;;;;;;;;;;;;;;5022463;28;5036;-62
2022/11/26 03:55:39;;;;;;;;;;;;;;;;;;5024465;28;4699;-62
2022/11/26 03:58:04;;;;;;;;;;;;;;;;;;5018103;28;3423;-62
2022/11/26 04:00:29;;;;;;;;;;;;;;;;;;5021378;28;4698;-62
2022/11/26 04:02:55;;;;;;;;;;;;;;;;;;5021492;28;5318;-62
2022/11/26 04:05:20;;;;;;;;;;;;;;;;;;5024129;28;5582;-62
2022/11/26 04:07:45;;;;;;;;;;;;;;;;;;5021430;28;5010;-62
2022/11/26 04:10:10;;;;;;;;;;;;;;;;;;5028594;28;3518;-61
2022/11/26 04:12:35;;;;;;;;;;;;;;;;;;5027223;28;4517;-61
2022/11/26 04:15:01;;;;;;;;;;;;;;;;;;5026696;28;4998;-62
2022/11/26 04:17:26;;;;;;;;;;;;;;;;;;5019791;28;4626;-62
2022/11/26 04:19:51;;;;;;;;;;;;;;;;;;5027544;28;4944;-62
2022/11/26 04:22:17;;;;;;;;;;;;;;;;;;5005044;28;5003;-62
2022/11/26 04:24:42;;;;;;;;;;;;;;;;;;5041622;28;3220;-62
2022/11/26 04:27:07;;;;;;;;;;;;;;;;;;5021823;28;5117;-62
2022/11/26 04:29:32;;;;;;;;;;;;;;;;;;5020928;28;5228;-62
2022/11/26 04:31:58;;;;;;;;;;;;;;;;;;5023041;28;5162;-62
2022/11/26 04:34:23;;;;;;;;;;;;;;;;;;5024665;28;5113;-62
2022/11/26 04:36:48;;;;;;;;;;;;;;;;;;5015397;28;3687;-62
2022/11/26 04:39:13;;;;;;;;;;;;;;;;;;5019444;28;4972;-62
2022/11/26 04:41:39;;;;;;;;;;;;;;;;;;5011513;28;5132;-62
2022/11/26 04:44:04;;;;;;;;;;;;;;;;;;5012287;28;4784;-62
2022/11/26 04:46:29;;;;;;;;;;;;;;;;;;5020839;28;4494;-62
2022/11/26 04:48:54;;;;;;;;;;;;;;;;;;5025817;28;3328;-62
2022/11/26 04:51:20;;;;;;;;;;;;;;;;;;5016872;28;5101;-62
2022/11/26 04:53:45;;;;;;;;;;;;;;;;;;5017636;28;4657;-62
2022/11/26 04:56:10;;;;;;;;;;;;;;;;;;5014299;28;5055;-62
2022/11/26 04:58:35;;;;;;;;;;;;;;;;;;5010182;28;4499;-62
2022/11/26 05:01:01;;;;;;;;;;;;;;;;;;5023331;28;3709;-62
2022/11/26 05:03:26;;;;;;;;;;;;;;;;;;5018455;28;4580;-62
2022/11/26 05:05:51;;;;;;;;;;;;;;;;;;5027487;28;5213;-63
2022/11/26 05:08:16;;;;;;;;;;;;;;;;;;5025592;28;4506;-63
2022/11/26 05:10:42;;;;;;;;;;;;;;;;;;5024504;28;5032;-62
2022/11/26 05:13:07;;;;;;;;;;;;;;;;;;5026909;28;3055;-62
2022/11/26 05:15:32;;;;;;;;;;;;;;;;;;5023180;28;5011;-62
2022/11/26 05:17:57;;;;;;;;;;;;;;;;;;5022939;28;4982;-63
2022/11/26 05:20:23;;;;;;;;;;;;;;;;;;5025051;28;4508;-62
2022/11/26 05:22:48;;;;;;;;;;;;;;;;;;5016549;28;5060;-61
2022/11/26 05:25:14;;;;;;;;;;;;;;;;;;5025243;28;3475;-62
2022/11/26 05:27:39;;;;;;;;;;;;;;;;;;5025139;28;5135;-62
2022/11/26 05:30:04;;;;;;;;;;;;;;;;;;5022819;28;5051;-62
2022/11/26 05:32:30;;;;;;;;;;;;;;;;;;5021672;28;4524;-62
2022/11/26 05:34:55;;;;;;;;;;;;;;;;;;5023442;28;5537;-62
2022/11/26 05:37:20;;;;;;;;;;;;;;;;;;5012766;28;4534;-62
2022/11/26 05:39:45;;;;;;;;;;;;;;;;;;5005464;28;3760;-64
2022/11/26 05:42:11;;;;;;;;;;;;;;;;;;5014040;28;4979;-63
2022/11/26 05:44:36;;;;;;;;;;;;;;;;;;5012207;28;5569;-62
2022/11/26 05:47:01;;;;;;;;;;;;;;;;;;5011100;28;5076;-63
2022/11/26 05:49:26;;;;;;;;;;;;;;;;;;5014658;28;5069;-63
2022/11/26 05:51:52;;;;;;;;;;;;;;;;;;5019313;28;3565;-64
2022/11/26 05:54:17;;;;;;;;;;;;;;;;;;5022538;28;4857;-63
2022/11/26 05:56:42;;;;;;;;;;;;;;;;;;5008062;28;5304;-64
2022/11/26 05:59:08;;;;;;;;;;;;;;;;;;4996752;28;4935;-63
2022/11/26 06:01:33;;;;;;;;;;;;;;;;;;5015191;28;5149;-62
2022/11/26 06:03:58;;;;;;;;;;;;;;;;;;5015678;28;3353;-63
2022/11/26 06:06:23;;;;;;;;;;;;;;;;;;5005839;28;4584;-63
2022/11/26 06:08:49;;;;;;;;;;;;;;;;;;5017107;28;5067;-62
2022/11/26 06:11:14;;;;;;;;;;;;;;;;;;5023468;28;5166;-63
2022/11/26 06:13:39;;;;;;;;;;;;;;;;;;5020746;28;5160;-62
2022/11/26 06:16:05;;;;;;;;;;;;;;;;;;5024777;28;3637;-62
2022/11/26 06:18:30;;;;;;;;;;;;;;;;;;5029056;28;5002;-63
2022/11/26 06:20:58;;;;;;;;;;;;;;;;;;5031132;28;4921;-63
2022/11/26 06:23:23;;;;;;;;;;;;;;;;;;5025587;28;5968;-63
2022/11/26 06:25:49;;;;;;;;;;;;;;;;;;5026784;28;5199;-64
2022/11/26 06:28:14;;;;;;;;;;;;;;;;;;5032440;28;3253;-63
2022/11/26 06:30:39;;;;;;;;;;;;;;;;;;5017419;28;4496;-64
2022/11/26 06:33:04;;;;;;;;;;;;;;;;;;5023982;28;5087;-63
2022/11/26 06:35:30;;;;;;;;;;;;;;;;;;5026017;28;5170;-63
2022/11/26 06:37:55;;;;;;;;;;;;;;;;;;5033717;28;4830;-63
2022/11/26 06:40:20;;;;;;;;;;;;;;;;;;5034585;28;4993;-64
2022/11/26 06:42:49;;;;;;;;;;;;;;;;;;5028542;28;3251;-64
2022/11/26 06:45:14;;;;;;;;;;;;;;;;;;5037505;28;4885;-63
2022/11/26 06:47:39;;;;;;;;;;;;;;;;;;5028608;28;5109;-64
2022/11/26 06:50:05;;;;;;;;;;;;;;;;;;5045070;28;5063;-64
2022/11/26 06:52:30;;;;;;;;;;;;;;;;;;5025326;28;4998;-66
2022/11/26 06:54:56;;;;;;;;;;;;;;;;;;5002551;28;3505;-66
2022/11/26 06:57:21;;;;;;;;;;;;;;;;;;5021782;28;4939;-68
2022/11/26 06:59:46;;;;;;;;;;;;;;;;;;5027653;28;5338;-61
2022/11/26 07:02:11;;;;;;;;;;;;;;;;;;5020453;28;4706;-67
2022/11/26 07:04:36;;;;;;;;;;;;;;;;;;5026264;28;5040;-66
2022/11/26 07:07:02;;;;;;;;;;;;;;;;;;5018678;28;3565;-65
2022/11/26 07:09:27;;;;;;;;;;;;;;;;;;5024835;28;5086;-68
2022/11/26 07:11:52;;;;;;;;;;;;;;;;;;5019682;28;5009;-69
2022/11/26 07:14:18;;;;;;;;;;;;;;;;;;5026040;28;5111;-64
2022/11/26 07:16:43;;;;;;;;;;;;;;;;;;5032728;28;4510;-64
2022/11/26 07:19:10;;;;;;;;;;;;;;;;;;5032122;28;3420;-61
2022/11/26 07:21:35;;;;;;;;;;;;;;;;;;5029460;28;5192;-61
2022/11/26 07:24:00;;;;;;;;;;;;;;;;;;5029273;28;4681;-62
2022/11/26 07:26:25;;;;;;;;;;;;;;;;;;5011542;28;5026;-62
2022/11/26 07:28:51;;;;;;;;;;;;;;;;;;5022699;28;4695;-62
2022/11/26 07:31:17;;;;;;;;;;;;;;;;;;5019056;28;4742;-61
2022/11/26 07:33:42;;;;;;;;;;;;;;;;;;5028034;28;3453;-61
2022/11/26 07:36:10;;;;;;;;;;;;;;;;;;5019755;28;4914;-62
2022/11/26 07:38:35;;;;;;;;;;;;;;;;;;5042875;28;4881;-62
2022/11/26 07:41:01;;;;;;;;;;;;;;;;;;5029549;28;5073;-62
2022/11/26 07:43:26;;;;;;;;;;;;;;;;;;5026424;28;4934;-60
2022/11/26 07:45:52;;;;;;;;;;;;;;;;;;5017984;28;3485;-61
2022/11/26 07:48:17;;;;;;;;;;;;;;;;;;5024334;28;4832;-61
2022/11/26 07:50:43;;;;;;;;;;;;;;;;;;5022193;28;5246;-61
2022/11/26 07:53:08;;;;;;;;;;;;;;;;;;5020429;28;5366;-61
2022/11/26 07:55:34;;;;;;;;;;;;;;;;;;5019277;28;5111;-61
2022/11/26 07:57:59;;;;;;;;;;;;;;;;;;5024659;28;3256;-60
2022/11/26 08:00:24;;;;;;;;;;;;;;;;;;5025670;28;4734;-61
2022/11/26 08:02:50;;;;;;;;;;;;;;;;;;5020309;28;4622;-60
2022/11/26 08:05:15;;;;;;;;;;;;;;;;;;5025674;28;5139;-60
2022/11/26 08:07:41;;;;;;;;;;;;;;;;;;5015921;28;5119;-60
2022/11/26 08:10:06;;;;;;;;;;;;;;;;;;5027520;28;3260;-61
2022/11/26 08:12:31;;;;;;;;;;;;;;;;;;5024495;28;4426;-60
2022/11/26 08:14:57;;;;;;;;;;;;;;;;;;5017832;28;5117;-61
2022/11/26 08:17:22;;;;;;;;;;;;;;;;;;5021102;28;4563;-61
2022/11/26 08:19:47;;;;;;;;;;;;;;;;;;5023634;28;5007;-61
2022/11/26 08:22:12;;;;;;;;;;;;;;;;;;5018718;28;3514;-61
2022/11/26 08:24:38;;;;;;;;;;;;;;;;;;5023480;28;4975;-61
2022/11/26 08:27:03;;;;;;;;;;;;;;;;;;5013066;28;5105;-61
2022/11/26 08:29:29;;;;;;;;;;;;;;;;;;5009947;28;4997;-60
2022/11/26 08:31:54;;;;;;;;;;;;;;;;;;5012368;28;5050;-60
2022/11/26 08:34:19;;;;;;;;;;;;;;;;;;5014565;28;4489;-61
2022/11/26 08:36:45;;;;;;;;;;;;;;;;;;5024421;28;3267;-60
2022/11/26 08:39:16;;;;;;;;;;;;;;;;;;5013914;28;5061;-61
2022/11/26 08:41:42;;;;;;;;;;;;;;;;;;5005644;28;5110;-60
2022/11/26 08:44:07;;;;;;;;;;;;;;;;;;5008705;28;4919;-61
2022/11/26 08:46:32;;;;;;;;;;;;;;;;;;5017228;28;5054;-60
2022/11/26 08:48:58;;;;;;;;;;;;;;;;;;5018377;28;3508;-60
2022/11/26 08:51:23;;;;;;;;;;;;;;;;;;5017352;28;5076;-60
2022/11/26 08:53:48;;;;;;;;;;;;;;;;;;5035275;28;4508;-60
2022/11/26 08:56:13;;;;;;;;;;;;;;;;;;5020604;28;4560;-61
2022/11/26 08:58:39;;;;;;;;;;;;;;;;;;5011202;28;5112;-60
2022/11/26 09:01:08;;;;;;;;;;;;;;;;;;4997016;28;3512;-61
2022/11/26 09:03:33;;;;;;;;;;;;;;;;;;4996370;28;4650;-61
2022/11/26 09:06:02;;;;;;;;;;;;;;;;;;5013330;28;4535;-60
2022/11/26 09:08:27;;;;;;;;;;;;;;;;;;5018175;28;5248;-60
2022/11/26 09:10:54;;;;;;;;;;;;;;;;;;5025187;28;5428;-60
2022/11/26 09:13:19;;;;;;;;;;;;;;;;;;5017668;28;5107;-60
2022/11/26 09:15:44;;;;;;;;;;;;;;;;;;5022812;28;1335;-60
2022/11/26 09:18:09;;;;;;;;;;;;;;;;;;5022800;28;5028;-60
2022/11/26 09:20:35;;;;;;;;;;;;;;;;;;5023924;28;5217;-60
2022/11/26 09:23:00;;;;;;;;;;;;;;;;;;5004847;28;4759;-61
2022/11/26 09:25:25;;;;;;;;;;;;;;;;;;5015174;28;4592;-60
2022/11/26 09:27:50;;;;;;;;;;;;;;;;;;5020346;28;1501;-60
2022/11/26 09:30:16;;;;;;;;;;;;;;;;;;5021476;28;5187;-60
2022/11/26 09:32:41;;;;;;;;;;;;;;;;;;5005069;28;5171;-61
2022/11/26 09:35:07;;;;;;;;;;;;;;;;;;5016680;28;5044;-60
2022/11/26 09:37:32;;;;;;;;;;;;;;;;;;5017778;28;5452;-61
2022/11/26 09:39:57;;;;;;;;;;;;;;;;;;5023364;28;3755;-61
2022/11/26 09:42:29;;;;;;;;;;;;;;;;;;5020166;28;5074;-60
2022/11/26 09:45:11;;;;;;;;;;;;;;;;;;5023871;28;4887;-60
2022/11/26 09:47:40;;;;;;;;;;;;;;;;;;5028931;28;4525;-61
2022/11/26 09:50:05;;;;;;;;;;;;;;;;;;5032409;28;4698;-60
2022/11/26 09:52:35;;;;;;;;;;;;;;;;;;5020988;28;5240;-60
2022/11/26 09:55:21;;;;;;;;;;;;;;;;;;5034686;28;3838;-60
2022/11/26 09:57:49;;;;;;;;;;;;;;;;;;5009985;28;5018;-60
2022/11/26 10:00:22;;;;;;;;;;;;;;;;;;5016100;28;4475;-61
2022/11/26 10:02:50;;;;;;;;;;;;;;;;;;5025020;28;4884;-60
2022/11/26 10:05:15;;;;;;;;;;;;;;;;;;5038549;28;5143;-60
2022/11/26 10:07:40;;;;;;;;;;;;;;;;;;5023764;28;4606;-60
2022/11/26 10:10:07;;;;;;;;;;;;;;;;;;5014530;28;3591;-60
2022/11/26 10:12:41;;;;;;;;;;;;;;;;;;5015815;28;4511;-60
2022/11/26 10:15:17;;;;;;;;;;;;;;;;;;5024179;28;5093;-60
2022/11/26 10:17:42;;;;;;;;;;;;;;;;;;5021211;28;5153;-60
2022/11/26 10:20:26;;;;;;;;;;;;;;;;;;5014563;28;4537;-61
2022/11/26 10:23:00;;;;;;;;;;;;;;;;;;5022421;28;4991;-61
2022/11/26 10:25:28;;;;;;;;;;;;;;;;;;5027505;28;4657;-61
2022/11/26 10:27:54;;;;;;;;;;;;;;;;;;5010019;28;3809;-61
2022/11/26 10:30:20;;;;;;;;;;;;;;;;;;5016427;28;4532;-61
2022/11/26 10:32:45;;;;;;;;;;;;;;;;;;5022857;28;4982;-60
2022/11/26 10:35:14;;;;;;;;;;;;;;;;;;5024517;28;4568;-61
2022/11/26 10:37:39;;;;;;;;;;;;;;;;;;5019767;28;5195;-60
2022/11/26 10:40:14;;;;;;;;;;;;;;;;;;5011666;28;1280;-61
2022/11/26 10:42:40;;;;;;;;;;;;;;;;;;5013462;28;4373;-61
2022/11/26 10:45:14;;;;;;;;;;;;;;;;;;5014343;28;5752;-61
2022/11/26 10:47:40;;;;;;;;;;;;;;;;;;5018975;28;4670;-61
2022/11/26 10:50:05;;;;;;;;;;;;;;;;;;5012246;28;5080;-60
2022/11/26 10:52:31;;;;;;;;;;;;;;;;;;5020471;28;4869;-61
2022/11/26 10:55:26;;;;;;;;;;;;;;;;;;5034784;28;3597;-62
2022/11/26 10:57:55;;;;;;;;;;;;;;;;;;4994748;28;5010;-61
2022/11/26 11:00:28;;;;;;;;;;;;;;;;;;5035092;28;5150;-64
2022/11/26 11:02:53;;;;;;;;;;;;;;;;;;5027234;28;5018;-65
2022/11/26 11:05:18;;;;;;;;;;;;;;;;;;5031000;28;4966;-64
2022/11/26 11:07:43;;;;;;;;;;;;;;;;;;5022041;28;5224;-60
2022/11/26 11:10:09;;;;;;;;;;;;;;;;;;5031911;28;3555;-60
2022/11/26 11:12:34;;;;;;;;;;;;;;;;;;5001594;28;4751;-60
2022/11/26 11:15:32;;;;;;;;;;;;;;;;;;4989710;28;4811;-60
2022/11/26 11:17:58;;;;;;;;;;;;;;;;;;4967556;28;5065;-60
2022/11/26 11:20:33;;;;;;;;;;;;;;;;;;4995546;28;5076;-61
2022/11/26 11:23:25;;;;;;;;;;;;;;;;;;5007203;28;4580;-61
2022/11/26 11:26:05;;;;;;;;;;;;;;;;;;5006508;28;4880;-60
2022/11/26 11:28:31;;;;;;;;;;;;;;;;;;4998492;28;5297;-59
2022/11/26 11:31:05;;;;;;;;;;;;;;;;;;4999879;28;1546;-59
2022/11/26 11:33:30;;;;;;;;;;;;;;;;;;5008420;28;5013;-60
2022/11/26 11:36:12;;;;;;;;;;;;;;;;;;4997902;28;5085;-59
2022/11/26 11:38:48;;;;;;;;;;;;;;;;;;5006689;28;4966;-60
2022/11/26 11:41:23;;;;;;;;;;;;;;;;;;4990127;28;5050;-61
2022/11/26 11:43:49;;;;;;;;;;;;;;;;;;4991844;28;4684;-60
2022/11/26 11:46:14;;;;;;;;;;;;;;;;;;4994014;28;1910;-61
2022/11/26 11:48:46;;;;;;;;;;;;;;;;;;4996650;28;4822;-59
2022/11/26 11:51:14;;;;;;;;;;;;;;;;;;5026401;28;5111;-60
2022/11/26 11:53:49;;;;;;;;;;;;;;;;;;5022287;28;5226;-60
2022/11/26 11:56:14;;;;;;;;;;;;;;;;;;5028911;28;5233;-60
2022/11/26 11:58:58;;;;;;;;;;;;;;;;;;5010394;28;4490;-60
2022/11/26 12:01:52;;;;;;;;;;;;;;;;;;5018722;28;5718;-61
2022/11/26 12:04:36;;;;;;;;;;;;;;;;;;4991018;28;5323;-58
2022/11/26 12:07:20;;;;;;;;;;;;;;;;;;5010488;28;2033;-60
2022/11/26 12:10:01;;;;;;;;;;;;;;;;;;5013502;28;4877;-61
2022/11/26 12:12:32;;;;;;;;;;;;;;;;;;5009331;28;5098;-61
2022/11/26 12:14:59;;;;;;;;;;;;;;;;;;5030663;28;5232;-61
2022/11/26 12:17:34;;;;;;;;;;;;;;;;;;5029939;28;4451;-60
2022/11/26 12:20:04;;;;;;;;;;;;;;;;;;5017621;28;4942;-60
2022/11/26 12:22:35;;;;;;;;;;;;;;;;;;5038111;28;5101;-61
2022/11/26 12:25:02;;;;;;;;;;;;;;;;;;5024795;28;3447;-60
2022/11/26 12:27:27;;;;;;;;;;;;;;;;;;5018016;28;4530;-61
2022/11/26 12:29:54;;;;;;;;;;;;;;;;;;5022939;28;4437;-60
2022/11/26 12:32:20;;;;;;;;;;;;;;;;;;5028117;28;4602;-61
2022/11/26 12:34:45;;;;;;;;;;;;;;;;;;5028785;28;4953;-60
2022/11/26 12:37:11;;;;;;;;;;;;;;;;;;5029916;28;1051;-60
2022/11/26 12:39:37;;;;;;;;;;;;;;;;;;5029562;28;5361;-61
2022/11/26 12:42:22;;;;;;;;;;;;;;;;;;5025643;28;4359;-60
2022/11/26 12:44:48;;;;;;;;;;;;;;;;;;5007084;28;5057;-61
2022/11/26 12:47:23;;;;;;;;;;;;;;;;;;5024078;28;4777;-60
2022/11/26 12:50:02;;;;;;;;;;;;;;;;;;5022114;28;5138;-60
2022/11/26 12:52:34;;;;;;;;;;;;;;;;;;5040836;28;4628;-60
2022/11/26 12:55:08;;;;;;;;;;;;;;;;;;5021647;28;3280;-60
2022/11/26 12:57:36;;;;;;;;;;;;;;;;;;5018111;28;5030;-59
2022/11/26 13:00:05;;;;;;;;;;;;;;;;;;5012499;28;4493;-60
2022/11/26 13:02:40;;;;;;;;;;;;;;;;;;5028069;28;4503;-61
2022/11/26 13:05:05;;;;;;;;;;;;;;;;;;5035935;28;5138;-61
2022/11/26 13:07:31;;;;;;;;;;;;;;;;;;5039564;28;4718;-61
2022/11/26 13:10:02;;;;;;;;;;;;;;;;;;5029614;28;1070;-61
2022/11/26 13:12:46;;;;;;;;;;;;;;;;;;5028567;28;4805;-61
2022/11/26 13:15:18;;;;;;;;;;;;;;;;;;5029414;28;5143;-60
2022/11/26 13:17:44;;;;;;;;;;;;;;;;;;5042145;28;4946;-60
2022/11/26 13:20:28;;;;;;;;;;;;;;;;;;5027630;28;5170;-59
2022/11/26 13:22:57;;;;;;;;;;;;;;;;;;5028937;28;4443;-60
2022/11/26 13:25:40;;;;;;;;;;;;;;;;;;5021469;28;4865;-61
2022/11/26 13:28:16;;;;;;;;;;;;;;;;;;5013410;28;2453;-61
2022/11/26 13:31:00;;;;;;;;;;;;;;;;;;5025018;28;4384;-61
2022/11/26 13:33:38;;;;;;;;;;;;;;;;;;5028912;28;4556;-61
2022/11/26 13:36:11;;;;;;;;;;;;;;;;;;5029031;28;4424;-61
2022/11/26 13:38:36;;;;;;;;;;;;;;;;;;5027804;28;4641;-61
2022/11/26 13:41:20;;;;;;;;;;;;;;;;;;5029067;28;4427;-60
2022/11/26 13:43:49;;;;;;;;;;;;;;;;;;5024980;28;4929;-60
2022/11/26 13:46:17;;;;;;;;;;;;;;;;;;5026388;28;2151;-61
2022/11/26 13:48:54;;;;;;;;;;;;;;;;;;5028720;28;4553;-60
2022/11/26 13:51:19;;;;;;;;;;;;;;;;;;5017850;28;4928;-61
2022/11/26 13:53:46;;;;;;;;;;;;;;;;;;5020987;28;4989;-59
2022/11/26 13:56:11;;;;;;;;;;;;;;;;;;5044176;28;4575;-61
2022/11/26 13:58:47;;;;;;;;;;;;;;;;;;5009905;28;4508;-60
2022/11/26 14:01:39;;;;;;;;;;;;;;;;;;5032290;28;3580;-61
2022/11/26 14:04:14;;;;;;;;;;;;;;;;;;5019755;28;5044;-60
2022/11/26 14:07:08;;;;;;;;;;;;;;;;;;5023981;28;5051;-61
2022/11/26 14:09:43;;;;;;;;;;;;;;;;;;5015718;28;4973;-61
2022/11/26 14:12:18;;;;;;;;;;;;;;;;;;5028252;28;4468;-61
2022/11/26 14:14:44;;;;;;;;;;;;;;;;;;5036123;28;4826;-61
2022/11/26 14:17:10;;;;;;;;;;;;;;;;;;5026177;28;5098;-61
2022/11/26 14:19:38;;;;;;;;;;;;;;;;;;4997255;28;5084;-60
2022/11/26 14:22:04;;;;;;;;;;;;;;;;;;5028612;28;2140;-61
2022/11/26 14:24:51;;;;;;;;;;;;;;;;;;5038671;28;4939;-61
2022/11/26 14:27:23;;;;;;;;;;;;;;;;;;4994858;28;4944;-61
2022/11/26 14:29:52;;;;;;;;;;;;;;;;;;5008706;28;4982;-59
2022/11/26 14:32:18;;;;;;;;;;;;;;;;;;5003396;28;5170;-60
2022/11/26 14:34:48;;;;;;;;;;;;;;;;;;5014741;28;5093;-60
2022/11/26 14:37:14;;;;;;;;;;;;;;;;;;5031358;28;944;-60
2022/11/26 14:39:39;;;;;;;;;;;;;;;;;;5032088;28;5034;-60
2022/11/26 14:42:04;;;;;;;;;;;;;;;;;;5029514;28;5006;-59
2022/11/26 14:44:30;;;;;;;;;;;;;;;;;;5030299;28;4985;-60
2022/11/26 14:46:56;;;;;;;;;;;;;;;;;;5025558;28;5339;-59
2022/11/26 14:49:26;;;;;;;;;;;;;;;;;;5019741;28;5092;-60
2022/11/26 14:51:52;;;;;;;;;;;;;;;;;;5043558;28;1046;-60
2022/11/26 14:54:39;;;;;;;;;;;;;;;;;;5040268;28;5050;-60
2022/11/26 14:57:15;;;;;;;;;;;;;;;;;;5016721;28;4908;-60
2022/11/26 15:00:19;;;;;;;;;;;;;;;;;;5030797;28;5014;-61
2022/11/26 15:02:45;;;;;;;;;;;;;;;;;;4978561;28;4925;-59
2022/11/26 15:05:25;;;;;;;;;;;;;;;;;;4986571;28;4592;-60
2022/11/26 15:07:56;;;;;;;;;;;;;;;;;;5001972;28;5001;-59
2022/11/26 15:10:21;;;;;;;;;;;;;;;;;;5012360;28;4988;-59
2022/11/26 15:12:47;;;;;;;;;;;;;;;;;;5043651;28;1258;-59
2022/11/26 15:15:14;;;;;;;;;;;;;;;;;;5028924;28;5045;-58
2022/11/26 15:17:41;;;;;;;;;;;;;;;;;;5029322;28;4631;-59
2022/11/26 15:20:07;;;;;;;;;;;;;;;;;;5029605;28;4545;-59
2022/11/26 15:22:33;;;;;;;;;;;;;;;;;;5046551;28;4945;-59
2022/11/26 15:24:59;;;;;;;;;;;;;;;;;;5029254;28;3588;-59
2022/11/26 15:27:27;;;;;;;;;;;;;;;;;;5027688;28;4561;-60
2022/11/26 15:29:52;;;;;;;;;;;;;;;;;;5031136;28;5095;-59
2022/11/26 15:32:28;;;;;;;;;;;;;;;;;;5031013;28;4850;-59
2022/11/26 15:34:53;;;;;;;;;;;;;;;;;;5031219;28;4798;-59
2022/11/26 15:37:18;;;;;;;;;;;;;;;;;;5026444;28;3193;-58
2022/11/26 15:39:44;;;;;;;;;;;;;;;;;;5024639;28;5139;-59
2022/11/26 15:42:27;;;;;;;;;;;;;;;;;;5030057;28;4968;-59
2022/11/26 15:44:53;;;;;;;;;;;;;;;;;;5030518;28;5057;-60
2022/11/26 15:47:19;;;;;;;;;;;;;;;;;;5030889;28;4516;-60
2022/11/26 15:49:44;;;;;;;;;;;;;;;;;;5029215;28;5048;-59
2022/11/26 15:52:12;;;;;;;;;;;;;;;;;;5041327;28;4658;-60
2022/11/26 15:54:38;;;;;;;;;;;;;;;;;;5029465;28;4891;-60
2022/11/26 15:57:06;;;;;;;;;;;;;;;;;;5014976;28;5055;-59
2022/11/26 15:59:38;;;;;;;;;;;;;;;;;;5011458;28;4534;-60
2022/11/26 16:02:06;;;;;;;;;;;;;;;;;;5037701;28;5221;-60
2022/11/26 16:04:31;;;;;;;;;;;;;;;;;;5018089;28;5029;-60
2022/11/26 16:07:12;;;;;;;;;;;;;;;;;;5019150;28;1922;-60
2022/11/26 16:09:37;;;;;;;;;;;;;;;;;;5016265;28;5669;-60
2022/11/26 16:12:03;;;;;;;;;;;;;;;;;;5025583;28;4391;-60
2022/11/26 16:14:30;;;;;;;;;;;;;;;;;;5032699;28;4913;-60
2022/11/26 16:17:04;;;;;;;;;;;;;;;;;;5027046;28;4731;-60
2022/11/26 16:19:30;;;;;;;;;;;;;;;;;;5014125;28;4932;-60
2022/11/26 16:21:55;;;;;;;;;;;;;;;;;;5028797;28;1063;-60
2022/11/26 16:24:34;;;;;;;;;;;;;;;;;;5042967;28;4891;-60
2022/11/26 16:27:04;;;;;;;;;;;;;;;;;;5011695;28;5332;-60
2022/11/26 16:29:29;;;;;;;;;;;;;;;;;;5023975;28;5148;-60
2022/11/26 16:31:54;;;;;;;;;;;;;;;;;;5012233;28;5111;-60
2022/11/26 16:34:20;;;;;;;;;;;;;;;;;;5017844;28;5292;-59
2022/11/26 16:36:45;;;;;;;;;;;;;;;;;;5011458;28;3223;-60
2022/11/26 16:39:11;;;;;;;;;;;;;;;;;;5008540;28;5029;-60
2022/11/26 16:41:36;;;;;;;;;;;;;;;;;;5019960;28;4669;-60
2022/11/26 16:44:02;;;;;;;;;;;;;;;;;;5028157;28;5047;-60
2022/11/26 16:46:27;;;;;;;;;;;;;;;;;;5028124;28;4990;-60
2022/11/26 16:48:52;;;;;;;;;;;;;;;;;;5020709;28;3375;-60
2022/11/26 16:51:18;;;;;;;;;;;;;;;;;;5032717;28;5660;-59
2022/11/26 16:53:43;;;;;;;;;;;;;;;;;;5046576;28;5070;-59
2022/11/26 16:56:14;;;;;;;;;;;;;;;;;;5005844;28;4859;-60
2022/11/26 16:58:39;;;;;;;;;;;;;;;;;;4991743;28;4494;-63
2022/11/26 17:01:04;;;;;;;;;;;;;;;;;;5013701;28;3610;-66
2022/11/26 17:03:31;;;;;;;;;;;;;;;;;;5010908;28;5443;-64
2022/11/26 17:05:57;;;;;;;;;;;;;;;;;;5022187;28;5109;-66
2022/11/26 17:08:23;;;;;;;;;;;;;;;;;;5013924;28;5618;-65